sensor_id;sensor_type;location;lat;lon;timestamp;temperature;humidity
6609;DHT22;61468;48.79282455;9.06262200;2022-08-14T00:02:35;24.40;1.00
6609;DHT22;61468;48.79282455;9.06262200;2022-08-14T00:05:20;24.40;1.00
6609;DHT22;61468;48.79282455;9.06262200;2022-08-14T00:08:04;24.40;1.00
6609;DHT22;61468;48.79282455;9.06262200;2022-08-14T00:10:48;24.40;1.00
6609;DHT22;61468;48.79282455;9.06262200;2022-08-14T00:13:32;24.40;1.00
6609;DHT22;61468;48.79282455;9.06262200;2022-08-14T00:16:17;24.40;1.00
6609;DHT22;61468;48.79282455;9.06262200;2022-08-14T00:19:01;24.40;1.00
6609;DHT22;61468;48.79282455;9.06262200;2022-08-14T00:21:49;24.40;1.00
6609;DHT22;61468;48.79282455;9.06262200;2022-08-14T00:24:34;24.30;1.00
6609;DHT22;61468;48.79282455;9.06262200;2022-08-14T00:27:18;24.20;1.00
6609;DHT22;61468;48.79282455;9.06262200;2022-08-14T00:30:05;24.20;1.00
6609;DHT22;61468;48.79282455;9.06262200;2022-08-14T00:32:50;24.30;1.00
6609;DHT22;61468;48.79282455;9.06262200;2022-08-14T00:35:34;24.30;1.00
6609;DHT22;61468;48.79282455;9.06262200;2022-08-14T00:38:19;24.40;1.00
6609;DHT22;61468;48.79282455;9.06262200;2022-08-14T00:41:05;24.30;1.00
6609;DHT22;61468;48.79282455;9.06262200;2022-08-14T00:43:50;24.30;1.00
6609;DHT22;61468;48.79282455;9.06262200;2022-08-14T00:46:36;24.30;1.00
6609;DHT22;61468;48.79282455;9.06262200;2022-08-14T00:49:20;24.30;1.00
6609;DHT22;61468;48.79282455;9.06262200;2022-08-14T00:52:05;24.20;1.00
6609;DHT22;61468;48.79282455;9.06262200;2022-08-14T00:54:50;24.20;1.00
6609;DHT22;61468;48.79282455;9.06262200;2022-08-14T00:57:38;24.20;1.00
6609;DHT22;61468;48.79282455;9.06262200;2022-08-14T01:00:22;24.20;1.00
6609;DHT22;61468;48.79282455;9.06262200;2022-08-14T01:03:07;24.30;1.00
6609;DHT22;61468;48.79282455;9.06262200;2022-08-14T01:05:51;24.30;1.00
6609;DHT22;61468;48.79282455;9.06262200;2022-08-14T01:08:36;24.20;1.00
6609;DHT22;61468;48.79282455;9.06262200;2022-08-14T01:11:21;24.30;1.00
6609;DHT22;61468;48.79282455;9.06262200;2022-08-14T01:14:05;24.30;1.00
6609;DHT22;61468;48.79282455;9.06262200;2022-08-14T01:16:49;24.30;1.00
6609;DHT22;61468;48.79282455;9.06262200;2022-08-14T01:19:33;24.30;1.00
6609;DHT22;61468;48.79282455;9.06262200;2022-08-14T01:22:36;24.30;1.00
6609;DHT22;61468;48.79282455;9.06262200;2022-08-14T01:25:20;24.20;1.00
6609;DHT22;61468;48.79282455;9.06262200;2022-08-14T01:28:05;24.20;1.00
6609;DHT22;61468;48.79282455;9.06262200;2022-08-14T01:30:49;24.20;1.00
6609;DHT22;61468;48.79282455;9.06262200;2022-08-14T01:33:39;24.20;1.00
6609;DHT22;61468;48.79282455;9.06262200;2022-08-14T01:36:25;24.20;1.00
6609;DHT22;61468;48.79282455;9.06262200;2022-08-14T01:39:13;24.10;1.00
6609;DHT22;61468;48.79282455;9.06262200;2022-08-14T01:41:57;24.10;1.00
6609;DHT22;61468;48.79282455;9.06262200;2022-08-14T01:44:45;24.10;1.00
6609;DHT22;61468;48.79282455;9.06262200;2022-08-14T01:47:35;24.10;1.00
6609;DHT22;61468;48.79282455;9.06262200;2022-08-14T01:50:19;24.10;1.00
6609;DHT22;61468;48.79282455;9.06262200;2022-08-14T01:53:03;24.00;1.00
6609;DHT22;61468;48.79282455;9.06262200;2022-08-14T01:55:47;24.10;1.00
6609;DHT22;61468;48.79282455;9.06262200;2022-08-14T01:58:34;24.20;1.00
6609;DHT22;61468;48.79282455;9.06262200;2022-08-14T02:01:19;24.20;1.00
6609;DHT22;61468;48.79282455;9.06262200;2022-08-14T02:04:04;24.20;1.00
6609;DHT22;61468;48.79282455;9.06262200;2022-08-14T02:06:49;24.20;1.00
6609;DHT22;61468;48.79282455;9.06262200;2022-08-14T02:09:35;24.30;1.00
6609;DHT22;61468;48.79282455;9.06262200;2022-08-14T02:12:21;24.30;1.00
6609;DHT22;61468;48.79282455;9.06262200;2022-08-14T02:15:07;24.30;1.00
6609;DHT22;61468;48.79282455;9.06262200;2022-08-14T02:17:52;24.30;1.00
6609;DHT22;61468;48.79282455;9.06262200;2022-08-14T02:20:36;24.30;1.00
6609;DHT22;61468;48.79282455;9.06262200;2022-08-14T02:23:20;24.30;1.00
6609;DHT22;61468;48.79282455;9.06262200;2022-08-14T02:26:14;24.20;1.00
6609;DHT22;61468;48.79282455;9.06262200;2022-08-14T02:29:12;24.20;1.00
6609;DHT22;61468;48.79282455;9.06262200;2022-08-14T02:31:59;24.20;1.00
6609;DHT22;61468;48.79282455;9.06262200;2022-08-14T02:34:43;24.10;1.00
6609;DHT22;61468;48.79282455;9.06262200;2022-08-14T02:37:28;24.10;1.00
6609;DHT22;61468;48.79282455;9.06262200;2022-08-14T02:40:13;24.00;1.00
6609;DHT22;61468;48.79282455;9.06262200;2022-08-14T02:42:58;24.00;1.00
6609;DHT22;61468;48.79282455;9.06262200;2022-08-14T02:45:43;24.00;1.00
6609;DHT22;61468;48.79282455;9.06262200;2022-08-14T02:48:28;24.00;1.00
6609;DHT22;61468;48.79282455;9.06262200;2022-08-14T02:51:14;24.10;1.00
6609;DHT22;61468;48.79282455;9.06262200;2022-08-14T02:53:58;24.10;1.00
6609;DHT22;61468;48.79282455;9.06262200;2022-08-14T02:56:44;24.20;1.00
6609;DHT22;61468;48.79282455;9.06262200;2022-08-14T02:59:29;24.20;1.00
6609;DHT22;61468;48.79282455;9.06262200;2022-08-14T03:02:13;24.20;1.00
6609;DHT22;61468;48.79282455;9.06262200;2022-08-14T03:04:59;24.20;1.00
6609;DHT22;61468;48.79282455;9.06262200;2022-08-14T03:07:43;24.20;1.00
6609;DHT22;61468;48.79282455;9.06262200;2022-08-14T03:10:27;24.20;1.00
6609;DHT22;61468;48.79282455;9.06262200;2022-08-14T03:13:11;24.20;1.00
6609;DHT22;61468;48.79282455;9.06262200;2022-08-14T03:15:55;24.20;1.00
6609;DHT22;61468;48.79282455;9.06262200;2022-08-14T03:18:41;24.20;1.00
6609;DHT22;61468;48.79282455;9.06262200;2022-08-14T03:21:25;24.20;1.00
6609;DHT22;61468;48.79282455;9.06262200;2022-08-14T03:24:10;24.30;1.00
6609;DHT22;61468;48.79282455;9.06262200;2022-08-14T03:26:57;24.30;1.00
6609;DHT22;61468;48.79282455;9.06262200;2022-08-14T03:29:41;24.30;1.00
6609;DHT22;61468;48.79282455;9.06262200;2022-08-14T03:32:25;24.20;1.00
6609;DHT22;61468;48.79282455;9.06262200;2022-08-14T03:35:09;24.20;1.00
6609;DHT22;61468;48.79282455;9.06262200;2022-08-14T03:37:54;24.20;1.00
6609;DHT22;61468;48.79282455;9.06262200;2022-08-14T03:40:39;24.20;1.00
6609;DHT22;61468;48.79282455;9.06262200;2022-08-14T03:43:23;24.30;1.00
6609;DHT22;61468;48.79282455;9.06262200;2022-08-14T03:46:08;24.30;1.00
6609;DHT22;61468;48.79282455;9.06262200;2022-08-14T03:48:54;24.30;1.00
6609;DHT22;61468;48.79282455;9.06262200;2022-08-14T03:51:39;24.20;1.00
6609;DHT22;61468;48.79282455;9.06262200;2022-08-14T03:54:23;24.30;1.00
6609;DHT22;61468;48.79282455;9.06262200;2022-08-14T03:57:07;24.30;1.00
6609;DHT22;61468;48.79282455;9.06262200;2022-08-14T03:59:51;24.30;1.00
6609;DHT22;61468;48.79282455;9.06262200;2022-08-14T04:02:36;24.20;1.00
6609;DHT22;61468;48.79282455;9.06262200;2022-08-14T04:05:21;24.20;1.00
6609;DHT22;61468;48.79282455;9.06262200;2022-08-14T04:08:07;24.20;1.00
6609;DHT22;61468;48.79282455;9.06262200;2022-08-14T04:10:52;24.20;1.00
6609;DHT22;61468;48.79282455;9.06262200;2022-08-14T04:13:38;24.20;1.00
6609;DHT22;61468;48.79282455;9.06262200;2022-08-14T04:16:23;24.20;1.00
6609;DHT22;61468;48.79282455;9.06262200;2022-08-14T04:19:08;24.20;1.00
6609;DHT22;61468;48.79282455;9.06262200;2022-08-14T04:21:52;24.30;1.00
6609;DHT22;61468;48.79282455;9.06262200;2022-08-14T04:24:36;24.20;1.00
6609;DHT22;61468;48.79282455;9.06262200;2022-08-14T04:27:21;24.20;1.00
6609;DHT22;61468;48.79282455;9.06262200;2022-08-14T04:30:06;24.30;1.00
6609;DHT22;61468;48.79282455;9.06262200;2022-08-14T04:32:51;24.30;1.00
6609;DHT22;61468;48.79282455;9.06262200;2022-08-14T04:35:35;24.30;1.00
6609;DHT22;61468;48.79282455;9.06262200;2022-08-14T04:38:20;24.30;1.00
6609;DHT22;61468;48.79282455;9.06262200;2022-08-14T04:41:23;24.30;1.00
6609;DHT22;61468;48.79282455;9.06262200;2022-08-14T04:44:26;24.30;1.00
6609;DHT22;61468;48.79282455;9.06262200;2022-08-14T04:47:10;24.30;1.00
6609;DHT22;61468;48.79282455;9.06262200;2022-08-14T04:50:13;24.30;1.00
6609;DHT22;61468;48.79282455;9.06262200;2022-08-14T04:52:57;24.30;1.00
6609;DHT22;61468;48.79282455;9.06262200;2022-08-14T04:55:43;24.30;1.00
6609;DHT22;61468;48.79282455;9.06262200;2022-08-14T04:58:32;24.30;1.00
6609;DHT22;61468;48.79282455;9.06262200;2022-08-14T05:01:16;24.30;1.00
6609;DHT22;61468;48.79282455;9.06262200;2022-08-14T05:04:00;24.30;1.00
6609;DHT22;61468;48.79282455;9.06262200;2022-08-14T05:06:45;24.30;1.00
6609;DHT22;61468;48.79282455;9.06262200;2022-08-14T05:09:29;24.30;1.00
6609;DHT22;61468;48.79282455;9.06262200;2022-08-14T05:12:13;24.20;1.00
6609;DHT22;61468;48.79282455;9.06262200;2022-08-14T05:14:57;24.20;1.00
6609;DHT22;61468;48.79282455;9.06262200;2022-08-14T05:17:41;24.20;1.00
6609;DHT22;61468;48.79282455;9.06262200;2022-08-14T05:20:26;24.30;1.00
6609;DHT22;61468;48.79282455;9.06262200;2022-08-14T05:23:15;24.30;1.00
6609;DHT22;61468;48.79282455;9.06262200;2022-08-14T05:26:02;24.30;1.00
6609;DHT22;61468;48.79282455;9.06262200;2022-08-14T05:28:46;24.30;1.00
6609;DHT22;61468;48.79282455;9.06262200;2022-08-14T05:31:31;24.30;1.00
6609;DHT22;61468;48.79282455;9.06262200;2022-08-14T05:34:16;24.30;1.00
6609;DHT22;61468;48.79282455;9.06262200;2022-08-14T05:37:01;24.30;1.00
6609;DHT22;61468;48.79282455;9.06262200;2022-08-14T05:39:45;24.30;1.00
6609;DHT22;61468;48.79282455;9.06262200;2022-08-14T05:42:29;24.30;1.00
6609;DHT22;61468;48.79282455;9.06262200;2022-08-14T05:45:13;24.30;1.00
6609;DHT22;61468;48.79282455;9.06262200;2022-08-14T05:48:02;24.30;1.00
6609;DHT22;61468;48.79282455;9.06262200;2022-08-14T05:50:47;24.30;1.00
6609;DHT22;61468;48.79282455;9.06262200;2022-08-14T05:53:31;24.30;1.00
6609;DHT22;61468;48.79282455;9.06262200;2022-08-14T05:56:15;24.30;1.00
6609;DHT22;61468;48.79282455;9.06262200;2022-08-14T05:58:59;24.30;1.00
6609;DHT22;61468;48.79282455;9.06262200;2022-08-14T06:01:43;24.30;1.00
6609;DHT22;61468;48.79282455;9.06262200;2022-08-14T06:04:27;24.30;1.00
6609;DHT22;61468;48.79282455;9.06262200;2022-08-14T06:07:15;24.30;1.00
6609;DHT22;61468;48.79282455;9.06262200;2022-08-14T06:09:59;24.30;1.00
6609;DHT22;61468;48.79282455;9.06262200;2022-08-14T06:12:43;24.30;1.00
6609;DHT22;61468;48.79282455;9.06262200;2022-08-14T06:15:27;24.30;1.00
6609;DHT22;61468;48.79282455;9.06262200;2022-08-14T06:18:11;24.30;1.00
6609;DHT22;61468;48.79282455;9.06262200;2022-08-14T06:20:55;24.30;1.00
6609;DHT22;61468;48.79282455;9.06262200;2022-08-14T06:23:39;24.30;1.00
6609;DHT22;61468;48.79282455;9.06262200;2022-08-14T06:26:23;24.40;1.00
6609;DHT22;61468;48.79282455;9.06262200;2022-08-14T06:29:07;24.40;1.00
6609;DHT22;61468;48.79282455;9.06262200;2022-08-14T06:31:53;24.40;1.00
6609;DHT22;61468;48.79282455;9.06262200;2022-08-14T06:34:37;24.40;1.00
6609;DHT22;61468;48.79282455;9.06262200;2022-08-14T06:37:22;24.40;1.00
6609;DHT22;61468;48.79282455;9.06262200;2022-08-14T06:40:07;24.40;1.00
6609;DHT22;61468;48.79282455;9.06262200;2022-08-14T06:42:52;24.40;1.00
6609;DHT22;61468;48.79282455;9.06262200;2022-08-14T06:45:39;24.50;1.00
6609;DHT22;61468;48.79282455;9.06262200;2022-08-14T06:48:24;24.50;1.00
6609;DHT22;61468;48.79282455;9.06262200;2022-08-14T06:51:08;24.50;1.00
6609;DHT22;61468;48.79282455;9.06262200;2022-08-14T06:53:52;24.60;1.00
6609;DHT22;61468;48.79282455;9.06262200;2022-08-14T06:56:36;24.60;1.00
6609;DHT22;61468;48.79282455;9.06262200;2022-08-14T06:59:20;24.50;1.00
6609;DHT22;61468;48.79282455;9.06262200;2022-08-14T07:02:04;24.60;1.00
6609;DHT22;61468;48.79282455;9.06262200;2022-08-14T07:05:07;24.60;1.00
6609;DHT22;61468;48.79282455;9.06262200;2022-08-14T07:08:27;24.60;1.00
6609;DHT22;61468;48.79282455;9.06262200;2022-08-14T07:11:12;24.70;1.00
6609;DHT22;61468;48.79282455;9.06262200;2022-08-14T07:13:56;24.70;1.00
6609;DHT22;61468;48.79282455;9.06262200;2022-08-14T07:16:40;24.70;1.00
6609;DHT22;61468;48.79282455;9.06262200;2022-08-14T07:19:24;24.70;1.00
6609;DHT22;61468;48.79282455;9.06262200;2022-08-14T07:22:08;24.70;1.00
6609;DHT22;61468;48.79282455;9.06262200;2022-08-14T07:24:53;24.70;1.00
6609;DHT22;61468;48.79282455;9.06262200;2022-08-14T07:27:39;24.70;1.00
6609;DHT22;61468;48.79282455;9.06262200;2022-08-14T07:30:23;24.70;1.00
6609;DHT22;61468;48.79282455;9.06262200;2022-08-14T07:33:09;24.80;1.00
6609;DHT22;61468;48.79282455;9.06262200;2022-08-14T07:35:54;24.80;1.00
6609;DHT22;61468;48.79282455;9.06262200;2022-08-14T07:38:38;24.90;1.00
6609;DHT22;61468;48.79282455;9.06262200;2022-08-14T07:41:23;24.90;1.00
6609;DHT22;61468;48.79282455;9.06262200;2022-08-14T07:44:07;24.90;1.00
6609;DHT22;61468;48.79282455;9.06262200;2022-08-14T07:46:54;24.90;1.00
6609;DHT22;61468;48.79282455;9.06262200;2022-08-14T07:49:38;24.90;1.00
6609;DHT22;61468;48.79282455;9.06262200;2022-08-14T07:52:24;25.00;1.00
6609;DHT22;61468;48.79282455;9.06262200;2022-08-14T07:55:09;25.00;1.00
6609;DHT22;61468;48.79282455;9.06262200;2022-08-14T07:57:54;25.10;1.00
6609;DHT22;61468;48.79282455;9.06262200;2022-08-14T08:00:40;25.20;1.00
6609;DHT22;61468;48.79282455;9.06262200;2022-08-14T08:03:25;25.20;1.00
6609;DHT22;61468;48.79282455;9.06262200;2022-08-14T08:06:15;25.30;1.00
6609;DHT22;61468;48.79282455;9.06262200;2022-08-14T08:09:01;25.20;1.00
6609;DHT22;61468;48.79282455;9.06262200;2022-08-14T08:11:45;25.10;1.00
6609;DHT22;61468;48.79282455;9.06262200;2022-08-14T08:14:33;25.20;1.00
6609;DHT22;61468;48.79282455;9.06262200;2022-08-14T08:17:17;25.10;1.00
6609;DHT22;61468;48.79282455;9.06262200;2022-08-14T08:20:03;25.20;1.00
6609;DHT22;61468;48.79282455;9.06262200;2022-08-14T08:22:48;25.20;1.00
6609;DHT22;61468;48.79282455;9.06262200;2022-08-14T08:25:35;25.30;1.00
6609;DHT22;61468;48.79282455;9.06262200;2022-08-14T08:28:21;25.30;1.00
6609;DHT22;61468;48.79282455;9.06262200;2022-08-14T08:31:06;25.30;1.00
6609;DHT22;61468;48.79282455;9.06262200;2022-08-14T08:33:51;25.30;1.00
6609;DHT22;61468;48.79282455;9.06262200;2022-08-14T08:36:40;25.30;1.00
6609;DHT22;61468;48.79282455;9.06262200;2022-08-14T08:39:25;25.30;1.00
6609;DHT22;61468;48.79282455;9.06262200;2022-08-14T08:42:09;25.30;1.00
6609;DHT22;61468;48.79282455;9.06262200;2022-08-14T08:44:56;25.30;1.00
6609;DHT22;61468;48.79282455;9.06262200;2022-08-14T08:47:40;25.30;1.00
6609;DHT22;61468;48.79282455;9.06262200;2022-08-14T08:50:36;25.20;1.00
6609;DHT22;61468;48.79282455;9.06262200;2022-08-14T08:53:21;25.20;1.00
6609;DHT22;61468;48.79282455;9.06262200;2022-08-14T08:56:05;25.30;1.00
6609;DHT22;61468;48.79282455;9.06262200;2022-08-14T08:58:49;25.30;1.00
6609;DHT22;61468;48.79282455;9.06262200;2022-08-14T09:01:33;25.30;1.00
6609;DHT22;61468;48.79282455;9.06262200;2022-08-14T09:04:19;25.30;1.00
6609;DHT22;61468;48.79282455;9.06262200;2022-08-14T09:07:04;25.20;1.00
6609;DHT22;61468;48.79282455;9.06262200;2022-08-14T09:09:48;25.20;1.00
6609;DHT22;61468;48.79282455;9.06262200;2022-08-14T09:12:36;25.30;1.00
6609;DHT22;61468;48.79282455;9.06262200;2022-08-14T09:15:20;25.30;1.00
6609;DHT22;61468;48.79282455;9.06262200;2022-08-14T09:18:05;25.30;1.00
6609;DHT22;61468;48.79282455;9.06262200;2022-08-14T09:20:52;25.40;1.00
6609;DHT22;61468;48.79282455;9.06262200;2022-08-14T09:23:36;25.30;1.00
6609;DHT22;61468;48.79282455;9.06262200;2022-08-14T09:26:21;25.30;1.00
6609;DHT22;61468;48.79282455;9.06262200;2022-08-14T09:29:05;25.30;1.00
6609;DHT22;61468;48.79282455;9.06262200;2022-08-14T09:31:54;25.30;1.00
6609;DHT22;61468;48.79282455;9.06262200;2022-08-14T09:37:59;25.40;1.00
6609;DHT22;61468;48.79282455;9.06262200;2022-08-14T09:41:08;25.40;1.00
6609;DHT22;61468;48.79282455;9.06262200;2022-08-14T09:46:58;25.50;1.00
6609;DHT22;61468;48.79282455;9.06262200;2022-08-14T09:49:42;25.50;1.00
6609;DHT22;61468;48.79282455;9.06262200;2022-08-14T09:52:27;25.60;1.00
6609;DHT22;61468;48.79282455;9.06262200;2022-08-14T09:55:19;25.60;1.00
6609;DHT22;61468;48.79282455;9.06262200;2022-08-14T09:58:14;25.60;1.00
6609;DHT22;61468;48.79282455;9.06262200;2022-08-14T10:01:16;25.60;1.00
6609;DHT22;61468;48.79282455;9.06262200;2022-08-14T10:04:00;25.60;1.00
6609;DHT22;61468;48.79282455;9.06262200;2022-08-14T10:06:44;25.60;1.00
6609;DHT22;61468;48.79282455;9.06262200;2022-08-14T10:09:29;25.60;1.00
6609;DHT22;61468;48.79282455;9.06262200;2022-08-14T10:12:13;25.60;1.00
6609;DHT22;61468;48.79282455;9.06262200;2022-08-14T10:14:57;25.60;1.00
6609;DHT22;61468;48.79282455;9.06262200;2022-08-14T10:17:41;25.60;1.00
6609;DHT22;61468;48.79282455;9.06262200;2022-08-14T10:20:42;25.60;1.00
6609;DHT22;61468;48.79282455;9.06262200;2022-08-14T10:23:41;25.60;1.00
6609;DHT22;61468;48.79282455;9.06262200;2022-08-14T10:26:26;25.60;1.00
6609;DHT22;61468;48.79282455;9.06262200;2022-08-14T10:29:10;25.60;1.00
6609;DHT22;61468;48.79282455;9.06262200;2022-08-14T10:32:00;25.60;1.00
6609;DHT22;61468;48.79282455;9.06262200;2022-08-14T10:34:45;25.70;1.00
6609;DHT22;61468;48.79282455;9.06262200;2022-08-14T10:37:37;25.80;1.00
6609;DHT22;61468;48.79282455;9.06262200;2022-08-14T10:40:28;25.70;1.00
6609;DHT22;61468;48.79282455;9.06262200;2022-08-14T10:43:21;25.70;1.00
6609;DHT22;61468;48.79282455;9.06262200;2022-08-14T10:46:16;25.70;1.00
6609;DHT22;61468;48.79282455;9.06262200;2022-08-14T10:49:03;25.70;1.00
6609;DHT22;61468;48.79282455;9.06262200;2022-08-14T10:54:44;25.70;1.00
6609;DHT22;61468;48.79282455;9.06262200;2022-08-14T10:57:29;25.80;1.00
6609;DHT22;61468;48.79282455;9.06262200;2022-08-14T11:00:17;25.80;1.00
6609;DHT22;61468;48.79282455;9.06262200;2022-08-14T11:03:09;25.80;1.00
6609;DHT22;61468;48.79282455;9.06262200;2022-08-14T11:05:56;25.80;1.00
6609;DHT22;61468;48.79282455;9.06262200;2022-08-14T11:08:40;25.90;1.00
6609;DHT22;61468;48.79282455;9.06262200;2022-08-14T11:11:25;26.00;1.00
6609;DHT22;61468;48.79282455;9.06262200;2022-08-14T11:14:10;26.00;1.00
6609;DHT22;61468;48.79282455;9.06262200;2022-08-14T11:16:55;25.90;1.00
6609;DHT22;61468;48.79282455;9.06262200;2022-08-14T11:19:41;26.00;1.00
6609;DHT22;61468;48.79282455;9.06262200;2022-08-14T11:22:27;26.00;1.00
6609;DHT22;61468;48.79282455;9.06262200;2022-08-14T11:25:14;26.00;1.00
6609;DHT22;61468;48.79282455;9.06262200;2022-08-14T11:27:59;26.00;1.00
6609;DHT22;61468;48.79282455;9.06262200;2022-08-14T11:30:43;26.00;1.00
6609;DHT22;61468;48.79282455;9.06262200;2022-08-14T11:33:29;26.00;1.00
6609;DHT22;61468;48.79282455;9.06262200;2022-08-14T11:36:15;26.10;1.00
6609;DHT22;61468;48.79282455;9.06262200;2022-08-14T11:38:59;26.00;1.00
6609;DHT22;61468;48.79282455;9.06262200;2022-08-14T11:41:43;26.20;1.00
6609;DHT22;61468;48.79282455;9.06262200;2022-08-14T11:44:28;26.30;1.00
6609;DHT22;61468;48.79282455;9.06262200;2022-08-14T11:47:13;26.30;1.00
6609;DHT22;61468;48.79282455;9.06262200;2022-08-14T11:50:23;26.40;1.00
6609;DHT22;61468;48.79282455;9.06262200;2022-08-14T11:53:27;26.30;1.00
6609;DHT22;61468;48.79282455;9.06262200;2022-08-14T11:56:13;26.40;1.00
6609;DHT22;61468;48.79282455;9.06262200;2022-08-14T11:58:57;26.50;1.00
6609;DHT22;61468;48.79282455;9.06262200;2022-08-14T12:01:42;26.50;1.00
6609;DHT22;61468;48.79282455;9.06262200;2022-08-14T12:04:28;26.40;1.00
6609;DHT22;61468;48.79282455;9.06262200;2022-08-14T12:07:12;26.30;1.00
6609;DHT22;61468;48.79282455;9.06262200;2022-08-14T12:09:56;26.30;1.00
6609;DHT22;61468;48.79282455;9.06262200;2022-08-14T12:12:41;26.20;1.00
6609;DHT22;61468;48.79282455;9.06262200;2022-08-14T12:15:33;26.20;1.00
6609;DHT22;61468;48.79282455;9.06262200;2022-08-14T12:18:31;26.20;1.00
6609;DHT22;61468;48.79282455;9.06262200;2022-08-14T12:21:19;26.20;1.00
6609;DHT22;61468;48.79282455;9.06262200;2022-08-14T12:24:06;26.20;1.00
6609;DHT22;61468;48.79282455;9.06262200;2022-08-14T12:26:55;26.30;1.00
6609;DHT22;61468;48.79282455;9.06262200;2022-08-14T12:29:50;26.40;1.00
6609;DHT22;61468;48.79282455;9.06262200;2022-08-14T12:32:39;26.70;1.00
6609;DHT22;61468;48.79282455;9.06262200;2022-08-14T12:35:35;26.70;1.00
6609;DHT22;61468;48.79282455;9.06262200;2022-08-14T12:38:33;26.50;1.00
6609;DHT22;61468;48.79282455;9.06262200;2022-08-14T12:41:21;26.50;1.00
6609;DHT22;61468;48.79282455;9.06262200;2022-08-14T12:44:06;26.60;1.00
6609;DHT22;61468;48.79282455;9.06262200;2022-08-14T12:47:01;26.60;1.00
6609;DHT22;61468;48.79282455;9.06262200;2022-08-14T12:49:49;26.50;1.00
6609;DHT22;61468;48.79282455;9.06262200;2022-08-14T12:52:41;26.50;1.00
6609;DHT22;61468;48.79282455;9.06262200;2022-08-14T12:55:26;26.50;1.00
6609;DHT22;61468;48.79282455;9.06262200;2022-08-14T12:58:11;26.60;1.00
6609;DHT22;61468;48.79282455;9.06262200;2022-08-14T13:00:55;26.70;1.00
6609;DHT22;61468;48.79282455;9.06262200;2022-08-14T13:03:41;26.70;1.00
6609;DHT22;61468;48.79282455;9.06262200;2022-08-14T13:06:26;26.50;1.00
6609;DHT22;61468;48.79282455;9.06262200;2022-08-14T13:09:16;26.40;1.00
6609;DHT22;61468;48.79282455;9.06262200;2022-08-14T13:12:02;26.40;1.00
6609;DHT22;61468;48.79282455;9.06262200;2022-08-14T13:14:49;26.40;1.00
6609;DHT22;61468;48.79282455;9.06262200;2022-08-14T13:17:42;26.40;1.00
6609;DHT22;61468;48.79282455;9.06262200;2022-08-14T13:20:26;26.40;1.00
6609;DHT22;61468;48.79282455;9.06262200;2022-08-14T13:23:13;26.40;1.00
6609;DHT22;61468;48.79282455;9.06262200;2022-08-14T13:25:58;26.40;1.00
6609;DHT22;61468;48.79282455;9.06262200;2022-08-14T13:28:42;26.40;1.00
6609;DHT22;61468;48.79282455;9.06262200;2022-08-14T13:31:29;26.50;1.00
6609;DHT22;61468;48.79282455;9.06262200;2022-08-14T13:34:16;26.50;1.00
6609;DHT22;61468;48.79282455;9.06262200;2022-08-14T13:37:03;26.50;1.00
6609;DHT22;61468;48.79282455;9.06262200;2022-08-14T13:39:51;26.50;1.00
6609;DHT22;61468;48.79282455;9.06262200;2022-08-14T13:42:35;26.50;1.00
6609;DHT22;61468;48.79282455;9.06262200;2022-08-14T13:45:25;26.70;1.00
6609;DHT22;61468;48.79282455;9.06262200;2022-08-14T13:48:09;26.70;1.00
6609;DHT22;61468;48.79282455;9.06262200;2022-08-14T13:50:55;26.80;1.00
6609;DHT22;61468;48.79282455;9.06262200;2022-08-14T13:53:49;27.00;1.00
6609;DHT22;61468;48.79282455;9.06262200;2022-08-14T13:56:40;27.00;1.00
6609;DHT22;61468;48.79282455;9.06262200;2022-08-14T13:59:27;27.10;1.00
6609;DHT22;61468;48.79282455;9.06262200;2022-08-14T14:02:11;27.20;1.00
6609;DHT22;61468;48.79282455;9.06262200;2022-08-14T14:04:58;27.20;1.00
6609;DHT22;61468;48.79282455;9.06262200;2022-08-14T14:07:46;27.10;1.00
6609;DHT22;61468;48.79282455;9.06262200;2022-08-14T14:10:35;27.00;1.00
6609;DHT22;61468;48.79282455;9.06262200;2022-08-14T14:13:19;26.90;1.00
6609;DHT22;61468;48.79282455;9.06262200;2022-08-14T14:16:06;27.00;1.00
6609;DHT22;61468;48.79282455;9.06262200;2022-08-14T14:18:54;27.10;1.00
6609;DHT22;61468;48.79282455;9.06262200;2022-08-14T14:21:39;27.10;1.00
6609;DHT22;61468;48.79282455;9.06262200;2022-08-14T14:24:23;27.00;1.00
6609;DHT22;61468;48.79282455;9.06262200;2022-08-14T14:27:07;27.00;1.00
6609;DHT22;61468;48.79282455;9.06262200;2022-08-14T14:29:56;27.00;1.00
6609;DHT22;61468;48.79282455;9.06262200;2022-08-14T14:32:43;27.00;1.00
6609;DHT22;61468;48.79282455;9.06262200;2022-08-14T14:35:28;27.20;1.00
6609;DHT22;61468;48.79282455;9.06262200;2022-08-14T14:38:14;27.20;1.00
6609;DHT22;61468;48.79282455;9.06262200;2022-08-14T14:41:00;27.10;1.00
6609;DHT22;61468;48.79282455;9.06262200;2022-08-14T14:43:49;27.00;1.00
6609;DHT22;61468;48.79282455;9.06262200;2022-08-14T14:46:35;27.00;1.00
6609;DHT22;61468;48.79282455;9.06262200;2022-08-14T14:49:20;27.20;1.00
6609;DHT22;61468;48.79282455;9.06262200;2022-08-14T14:52:06;27.20;1.00
6609;DHT22;61468;48.79282455;9.06262200;2022-08-14T14:54:51;27.00;1.00
6609;DHT22;61468;48.79282455;9.06262200;2022-08-14T14:57:35;26.90;1.00
6609;DHT22;61468;48.79282455;9.06262200;2022-08-14T15:00:20;26.80;1.00
6609;DHT22;61468;48.79282455;9.06262200;2022-08-14T15:03:04;26.80;1.00
6609;DHT22;61468;48.79282455;9.06262200;2022-08-14T15:05:49;26.80;1.00
6609;DHT22;61468;48.79282455;9.06262200;2022-08-14T15:08:36;26.70;1.00
6609;DHT22;61468;48.79282455;9.06262200;2022-08-14T15:11:21;26.70;1.00
6609;DHT22;61468;48.79282455;9.06262200;2022-08-14T15:14:05;26.70;1.00
6609;DHT22;61468;48.79282455;9.06262200;2022-08-14T15:16:49;26.70;1.00
6609;DHT22;61468;48.79282455;9.06262200;2022-08-14T15:19:34;26.70;1.00
6609;DHT22;61468;48.79282455;9.06262200;2022-08-14T15:22:18;26.70;1.00
6609;DHT22;61468;48.79282455;9.06262200;2022-08-14T15:25:04;26.70;1.00
6609;DHT22;61468;48.79282455;9.06262200;2022-08-14T15:27:49;26.70;1.00
6609;DHT22;61468;48.79282455;9.06262200;2022-08-14T15:30:33;26.70;1.00
6609;DHT22;61468;48.79282455;9.06262200;2022-08-14T15:33:18;26.60;1.00
6609;DHT22;61468;48.79282455;9.06262200;2022-08-14T15:36:21;26.60;1.00
6609;DHT22;61468;48.79282455;9.06262200;2022-08-14T15:39:05;26.60;1.00
6609;DHT22;61468;48.79282455;9.06262200;2022-08-14T15:41:50;26.60;1.00
6609;DHT22;61468;48.79282455;9.06262200;2022-08-14T15:44:34;26.60;1.00